sensor_id;sensor_type;location;lat;lon;timestamp;temperature;humidity
36374;DHT22;22399;51.346;12.372;2023-03-16T00:00:22;0.10;99.90
36374;DHT22;22399;51.346;12.372;2023-03-16T00:02:50;0.10;99.90
36374;DHT22;22399;51.346;12.372;2023-03-16T00:05:19;0.10;99.90
36374;DHT22;22399;51.346;12.372;2023-03-16T00:07:47;0.10;99.90
36374;DHT22;22399;51.346;12.372;2023-03-16T00:10:15;0.10;99.90
36374;DHT22;22399;51.346;12.372;2023-03-16T00:12:44;0.00;99.90
36374;DHT22;22399;51.346;12.372;2023-03-16T00:15:13;0.10;99.90
36374;DHT22;22399;51.346;12.372;2023-03-16T00:17:42;0.10;99.90
36374;DHT22;22399;51.346;12.372;2023-03-16T00:20:15;0.10;99.90
36374;DHT22;22399;51.346;12.372;2023-03-16T00:22:44;0.10;99.90
36374;DHT22;22399;51.346;12.372;2023-03-16T00:25:13;0.10;99.90
36374;DHT22;22399;51.346;12.372;2023-03-16T00:27:41;0.00;99.90
36374;DHT22;22399;51.346;12.372;2023-03-16T00:30:10;0.10;99.90
36374;DHT22;22399;51.346;12.372;2023-03-16T00:32:40;0.10;99.90
36374;DHT22;22399;51.346;12.372;2023-03-16T00:35:09;0.00;99.90
36374;DHT22;22399;51.346;12.372;2023-03-16T00:37:38;0.00;99.90
36374;DHT22;22399;51.346;12.372;2023-03-16T00:40:09;0.00;99.90
36374;DHT22;22399;51.346;12.372;2023-03-16T00:42:39;0.00;99.90
36374;DHT22;22399;51.346;12.372;2023-03-16T00:45:09;0.00;99.90
36374;DHT22;22399;51.346;12.372;2023-03-16T00:47:39;0.00;99.90
36374;DHT22;22399;51.346;12.372;2023-03-16T00:50:08;0.00;99.90
36374;DHT22;22399;51.346;12.372;2023-03-16T00:52:37;0.00;99.90
36374;DHT22;22399;51.346;12.372;2023-03-16T00:55:06;0.00;99.90
36374;DHT22;22399;51.346;12.372;2023-03-16T00:57:35;0.00;99.90
36374;DHT22;22399;51.346;12.372;2023-03-16T01:00:04;0.00;99.90
36374;DHT22;22399;51.346;12.372;2023-03-16T01:02:42;0.00;99.90
36374;DHT22;22399;51.346;12.372;2023-03-16T01:05:12;0.00;99.90
36374;DHT22;22399;51.346;12.372;2023-03-16T01:07:41;-0.10;99.90
36374;DHT22;22399;51.346;12.372;2023-03-16T01:10:11;0.00;99.90
36374;DHT22;22399;51.346;12.372;2023-03-16T01:12:40;-0.10;99.90
36374;DHT22;22399;51.346;12.372;2023-03-16T01:15:11;-0.10;99.90
36374;DHT22;22399;51.346;12.372;2023-03-16T01:17:39;-0.10;99.90
36374;DHT22;22399;51.346;12.372;2023-03-16T01:20:10;-0.10;99.90
36374;DHT22;22399;51.346;12.372;2023-03-16T01:22:40;0.00;99.90
36374;DHT22;22399;51.346;12.372;2023-03-16T01:25:12;0.00;99.90
36374;DHT22;22399;51.346;12.372;2023-03-16T01:27:40;0.00;99.90
36374;DHT22;22399;51.346;12.372;2023-03-16T01:30:10;0.00;99.90
36374;DHT22;22399;51.346;12.372;2023-03-16T01:32:39;0.00;99.90
36374;DHT22;22399;51.346;12.372;2023-03-16T01:35:09;0.00;99.90
36374;DHT22;22399;51.346;12.372;2023-03-16T01:37:37;0.10;99.90
36374;DHT22;22399;51.346;12.372;2023-03-16T01:40:12;0.00;99.90
36374;DHT22;22399;51.346;12.372;2023-03-16T01:42:46;0.00;99.90
36374;DHT22;22399;51.346;12.372;2023-03-16T01:49:06;0.00;99.90
36374;DHT22;22399;51.346;12.372;2023-03-16T01:51:40;0.00;99.90
36374;DHT22;22399;51.346;12.372;2023-03-16T01:54:15;0.00;99.90
36374;DHT22;22399;51.346;12.372;2023-03-16T01:56:51;-0.10;99.90
36374;DHT22;22399;51.346;12.372;2023-03-16T01:59:27;-0.10;99.90
36374;DHT22;22399;51.346;12.372;2023-03-16T02:01:58;-0.10;99.90
36374;DHT22;22399;51.346;12.372;2023-03-16T02:04:37;-0.10;99.90
36374;DHT22;22399;51.346;12.372;2023-03-16T02:07:12;-0.10;99.90
36374;DHT22;22399;51.346;12.372;2023-03-16T02:09:45;-0.10;99.90
36374;DHT22;22399;51.346;12.372;2023-03-16T02:12:17;-0.10;99.90
36374;DHT22;22399;51.346;12.372;2023-03-16T02:14:50;-0.10;99.90
36374;DHT22;22399;51.346;12.372;2023-03-16T02:17:20;-0.20;99.90
36374;DHT22;22399;51.346;12.372;2023-03-16T02:19:59;-0.20;99.90
36374;DHT22;22399;51.346;12.372;2023-03-16T02:22:38;-0.20;99.90
36374;DHT22;22399;51.346;12.372;2023-03-16T02:25:09;-0.30;99.90
36374;DHT22;22399;51.346;12.372;2023-03-16T02:27:42;-0.30;99.90
36374;DHT22;22399;51.346;12.372;2023-03-16T02:30:16;-0.30;99.90
36374;DHT22;22399;51.346;12.372;2023-03-16T02:33:02;-0.30;99.90
36374;DHT22;22399;51.346;12.372;2023-03-16T02:35:32;-0.30;99.90
36374;DHT22;22399;51.346;12.372;2023-03-16T02:38:02;-0.20;99.90
36374;DHT22;22399;51.346;12.372;2023-03-16T02:40:35;-0.20;99.90
36374;DHT22;22399;51.346;12.372;2023-03-16T02:43:12;-0.20;99.90
36374;DHT22;22399;51.346;12.372;2023-03-16T02:45:50;-0.20;99.90
36374;DHT22;22399;51.346;12.372;2023-03-16T02:48:24;-0.20;99.90
36374;DHT22;22399;51.346;12.372;2023-03-16T02:50:54;-0.30;99.90
36374;DHT22;22399;51.346;12.372;2023-03-16T02:53:25;-0.20;99.90
36374;DHT22;22399;51.346;12.372;2023-03-16T02:55:55;-0.30;99.90
36374;DHT22;22399;51.346;12.372;2023-03-16T02:58:24;-0.30;99.90
36374;DHT22;22399;51.346;12.372;2023-03-16T03:00:54;-0.40;99.90
36374;DHT22;22399;51.346;12.372;2023-03-16T03:03:23;-0.30;99.90
36374;DHT22;22399;51.346;12.372;2023-03-16T03:05:51;-0.30;99.90
36374;DHT22;22399;51.346;12.372;2023-03-16T03:08:20;-0.30;99.90
36374;DHT22;22399;51.346;12.372;2023-03-16T03:10:49;-0.30;99.90
36374;DHT22;22399;51.346;12.372;2023-03-16T03:13:18;-0.30;99.90
36374;DHT22;22399;51.346;12.372;2023-03-16T03:15:46;-0.30;99.90
36374;DHT22;22399;51.346;12.372;2023-03-16T03:18:16;-0.30;99.90
36374;DHT22;22399;51.346;12.372;2023-03-16T03:20:44;-0.30;99.90
36374;DHT22;22399;51.346;12.372;2023-03-16T03:23:13;-0.30;99.90
36374;DHT22;22399;51.346;12.372;2023-03-16T03:25:42;-0.30;99.90
36374;DHT22;22399;51.346;12.372;2023-03-16T03:28:12;-0.40;99.90
36374;DHT22;22399;51.346;12.372;2023-03-16T03:30:42;-0.40;99.90
36374;DHT22;22399;51.346;12.372;2023-03-16T03:33:10;-0.40;99.90
36374;DHT22;22399;51.346;12.372;2023-03-16T03:35:40;-0.40;99.90
36374;DHT22;22399;51.346;12.372;2023-03-16T03:38:09;-0.40;99.90
36374;DHT22;22399;51.346;12.372;2023-03-16T03:40:42;-0.40;99.90
36374;DHT22;22399;51.346;12.372;2023-03-16T03:43:11;-0.40;99.90
36374;DHT22;22399;51.346;12.372;2023-03-16T03:45:42;-0.40;99.90
36374;DHT22;22399;51.346;12.372;2023-03-16T03:48:11;-0.40;99.90
36374;DHT22;22399;51.346;12.372;2023-03-16T03:50:41;-0.30;99.90
36374;DHT22;22399;51.346;12.372;2023-03-16T03:53:26;-0.30;99.90
36374;DHT22;22399;51.346;12.372;2023-03-16T03:56:13;-0.30;99.90
36374;DHT22;22399;51.346;12.372;2023-03-16T03:58:42;-0.30;99.90
36374;DHT22;22399;51.346;12.372;2023-03-16T04:01:13;-0.40;99.90
36374;DHT22;22399;51.346;12.372;2023-03-16T04:03:41;-0.30;99.90
36374;DHT22;22399;51.346;12.372;2023-03-16T04:06:14;-0.40;99.90
36374;DHT22;22399;51.346;12.372;2023-03-16T04:08:42;-0.40;99.90
36374;DHT22;22399;51.346;12.372;2023-03-16T04:11:14;-0.40;99.90
36374;DHT22;22399;51.346;12.372;2023-03-16T04:13:43;-0.40;99.90
36374;DHT22;22399;51.346;12.372;2023-03-16T04:16:11;-0.40;99.90
36374;DHT22;22399;51.346;12.372;2023-03-16T04:18:43;-0.40;99.90
36374;DHT22;22399;51.346;12.372;2023-03-16T04:21:15;-0.40;99.90
36374;DHT22;22399;51.346;12.372;2023-03-16T04:23:46;-0.40;99.90
36374;DHT22;22399;51.346;12.372;2023-03-16T04:26:15;-0.40;99.90
36374;DHT22;22399;51.346;12.372;2023-03-16T04:28:46;-0.40;99.90
36374;DHT22;22399;51.346;12.372;2023-03-16T04:31:17;-0.40;99.90
36374;DHT22;22399;51.346;12.372;2023-03-16T04:33:46;-0.40;99.90
36374;DHT22;22399;51.346;12.372;2023-03-16T04:36:16;-0.50;99.90
36374;DHT22;22399;51.346;12.372;2023-03-16T04:38:45;-0.50;99.90
36374;DHT22;22399;51.346;12.372;2023-03-16T04:41:14;-0.50;99.90
36374;DHT22;22399;51.346;12.372;2023-03-16T04:44:09;-0.50;99.90
36374;DHT22;22399;51.346;12.372;2023-03-16T04:46:37;-0.50;99.90
36374;DHT22;22399;51.346;12.372;2023-03-16T04:49:08;-0.50;99.90
36374;DHT22;22399;51.346;12.372;2023-03-16T04:51:39;-0.50;99.90
36374;DHT22;22399;51.346;12.372;2023-03-16T04:54:12;-0.50;99.90
36374;DHT22;22399;51.346;12.372;2023-03-16T04:56:42;-0.50;99.90
36374;DHT22;22399;51.346;12.372;2023-03-16T04:59:37;-0.50;99.90
36374;DHT22;22399;51.346;12.372;2023-03-16T05:02:15;-0.50;99.90
36374;DHT22;22399;51.346;12.372;2023-03-16T05:04:45;-0.40;99.90
36374;DHT22;22399;51.346;12.372;2023-03-16T05:07:16;-0.40;99.90
36374;DHT22;22399;51.346;12.372;2023-03-16T05:09:49;-0.50;99.90
36374;DHT22;22399;51.346;12.372;2023-03-16T05:12:17;-0.50;99.90
36374;DHT22;22399;51.346;12.372;2023-03-16T05:14:50;-0.50;99.90
36374;DHT22;22399;51.346;12.372;2023-03-16T05:17:24;-0.50;99.90
36374;DHT22;22399;51.346;12.372;2023-03-16T05:19:53;-0.50;99.90
36374;DHT22;22399;51.346;12.372;2023-03-16T05:22:24;-0.60;99.90
36374;DHT22;22399;51.346;12.372;2023-03-16T05:25:25;-0.60;99.90
36374;DHT22;22399;51.346;12.372;2023-03-16T05:27:56;-0.60;99.90
36374;DHT22;22399;51.346;12.372;2023-03-16T05:30:54;-0.60;99.90
36374;DHT22;22399;51.346;12.372;2023-03-16T05:33:26;-0.60;99.90
36374;DHT22;22399;51.346;12.372;2023-03-16T05:36:00;-0.60;99.90
36374;DHT22;22399;51.346;12.372;2023-03-16T05:38:32;-0.60;99.90
36374;DHT22;22399;51.346;12.372;2023-03-16T05:41:03;-0.60;99.90
36374;DHT22;22399;51.346;12.372;2023-03-16T05:43:52;-0.60;99.90
36374;DHT22;22399;51.346;12.372;2023-03-16T05:46:24;-0.60;99.90
36374;DHT22;22399;51.346;12.372;2023-03-16T05:48:54;-0.60;99.90
36374;DHT22;22399;51.346;12.372;2023-03-16T05:51:23;-0.50;99.90
36374;DHT22;22399;51.346;12.372;2023-03-16T05:53:54;-0.50;99.90
36374;DHT22;22399;51.346;12.372;2023-03-16T05:56:31;-0.50;99.90
36374;DHT22;22399;51.346;12.372;2023-03-16T05:59:00;-0.40;99.90
36374;DHT22;22399;51.346;12.372;2023-03-16T06:01:29;-0.40;99.90
36374;DHT22;22399;51.346;12.372;2023-03-16T06:04:00;-0.30;99.90
36374;DHT22;22399;51.346;12.372;2023-03-16T06:06:32;-0.20;99.90
36374;DHT22;22399;51.346;12.372;2023-03-16T06:09:09;-0.10;99.90
36374;DHT22;22399;51.346;12.372;2023-03-16T06:11:38;0.10;99.90
36374;DHT22;22399;51.346;12.372;2023-03-16T06:14:07;0.30;99.90
36374;DHT22;22399;51.346;12.372;2023-03-16T06:16:36;0.40;99.90
36374;DHT22;22399;51.346;12.372;2023-03-16T06:19:04;0.50;99.90
36374;DHT22;22399;51.346;12.372;2023-03-16T06:21:33;0.50;99.90
36374;DHT22;22399;51.346;12.372;2023-03-16T06:24:09;0.60;99.90
36374;DHT22;22399;51.346;12.372;2023-03-16T06:26:38;0.70;99.90
36374;DHT22;22399;51.346;12.372;2023-03-16T06:29:10;0.90;99.90
36374;DHT22;22399;51.346;12.372;2023-03-16T06:31:40;1.00;99.90
36374;DHT22;22399;51.346;12.372;2023-03-16T06:34:09;1.10;99.90
36374;DHT22;22399;51.346;12.372;2023-03-16T06:36:39;1.20;99.90
36374;DHT22;22399;51.346;12.372;2023-03-16T06:39:12;1.30;99.90
36374;DHT22;22399;51.346;12.372;2023-03-16T06:41:45;1.60;99.90
36374;DHT22;22399;51.346;12.372;2023-03-16T06:44:15;1.80;99.90
36374;DHT22;22399;51.346;12.372;2023-03-16T06:47:10;1.70;99.90
36374;DHT22;22399;51.346;12.372;2023-03-16T06:49:38;1.80;99.90
36374;DHT22;22399;51.346;12.372;2023-03-16T06:52:14;2.10;99.90
36374;DHT22;22399;51.346;12.372;2023-03-16T06:54:44;2.40;99.90
36374;DHT22;22399;51.346;12.372;2023-03-16T06:57:14;2.80;99.90
36374;DHT22;22399;51.346;12.372;2023-03-16T06:59:43;3.50;99.90
36374;DHT22;22399;51.346;12.372;2023-03-16T07:02:12;4.10;99.90
36374;DHT22;22399;51.346;12.372;2023-03-16T07:04:41;4.60;99.90
36374;DHT22;22399;51.346;12.372;2023-03-16T07:07:10;5.00;99.90
36374;DHT22;22399;51.346;12.372;2023-03-16T07:09:39;5.20;99.90
36374;DHT22;22399;51.346;12.372;2023-03-16T07:12:10;5.40;99.90
36374;DHT22;22399;51.346;12.372;2023-03-16T07:14:38;5.60;99.90
36374;DHT22;22399;51.346;12.372;2023-03-16T07:17:10;5.60;99.90
36374;DHT22;22399;51.346;12.372;2023-03-16T07:19:39;5.70;99.90
36374;DHT22;22399;51.346;12.372;2023-03-16T07:22:07;5.80;99.90
36374;DHT22;22399;51.346;12.372;2023-03-16T07:24:38;6.00;99.90
36374;DHT22;22399;51.346;12.372;2023-03-16T07:27:09;6.20;99.90
36374;DHT22;22399;51.346;12.372;2023-03-16T07:29:39;6.50;99.90
36374;DHT22;22399;51.346;12.372;2023-03-16T07:32:08;6.50;99.90
36374;DHT22;22399;51.346;12.372;2023-03-16T07:34:38;6.60;99.90
36374;DHT22;22399;51.346;12.372;2023-03-16T07:37:08;6.60;99.90
36374;DHT22;22399;51.346;12.372;2023-03-16T07:39:37;6.70;99.90
36374;DHT22;22399;51.346;12.372;2023-03-16T07:42:19;6.70;99.90
36374;DHT22;22399;51.346;12.372;2023-03-16T07:45:09;6.80;99.90
36374;DHT22;22399;51.346;12.372;2023-03-16T07:47:39;7.10;99.90
36374;DHT22;22399;51.346;12.372;2023-03-16T07:50:27;7.50;99.90
36374;DHT22;22399;51.346;12.372;2023-03-16T07:52:57;7.90;99.90
36374;DHT22;22399;51.346;12.372;2023-03-16T07:55:26;8.30;99.90
36374;DHT22;22399;51.346;12.372;2023-03-16T07:57:56;8.50;99.90
36374;DHT22;22399;51.346;12.372;2023-03-16T08:00:30;8.60;99.90
36374;DHT22;22399;51.346;12.372;2023-03-16T08:02:58;8.60;99.90
36374;DHT22;22399;51.346;12.372;2023-03-16T08:05:29;8.60;99.90
36374;DHT22;22399;51.346;12.372;2023-03-16T08:08:00;8.60;99.90
36374;DHT22;22399;51.346;12.372;2023-03-16T08:10:31;8.70;99.90
36374;DHT22;22399;51.346;12.372;2023-03-16T08:13:10;8.80;99.90
36374;DHT22;22399;51.346;12.372;2023-03-16T08:15:45;8.90;99.90
36374;DHT22;22399;51.346;12.372;2023-03-16T08:18:24;8.80;99.90
36374;DHT22;22399;51.346;12.372;2023-03-16T08:20:53;8.50;99.90
36374;DHT22;22399;51.346;12.372;2023-03-16T08:23:22;8.30;99.90
36374;DHT22;22399;51.346;12.372;2023-03-16T08:25:52;8.20;99.90
36374;DHT22;22399;51.346;12.372;2023-03-16T08:28:23;8.60;99.90
36374;DHT22;22399;51.346;12.372;2023-03-16T08:30:54;8.70;99.90
36374;DHT22;22399;51.346;12.372;2023-03-16T08:33:32;9.00;99.90
36374;DHT22;22399;51.346;12.372;2023-03-16T08:36:05;9.00;99.90
36374;DHT22;22399;51.346;12.372;2023-03-16T08:38:34;9.10;99.90
36374;DHT22;22399;51.346;12.372;2023-03-16T08:41:06;9.20;99.90
36374;DHT22;22399;51.346;12.372;2023-03-16T08:43:36;9.30;99.90
36374;DHT22;22399;51.346;12.372;2023-03-16T08:46:05;9.30;99.90
36374;DHT22;22399;51.346;12.372;2023-03-16T08:48:46;9.40;99.90
36374;DHT22;22399;51.346;12.372;2023-03-16T08:51:16;9.80;99.90
36374;DHT22;22399;51.346;12.372;2023-03-16T08:53:44;10.10;99.90
36374;DHT22;22399;51.346;12.372;2023-03-16T08:56:13;10.30;99.90
36374;DHT22;22399;51.346;12.372;2023-03-16T08:58:43;10.60;99.90
36374;DHT22;22399;51.346;12.372;2023-03-16T09:01:13;10.60;99.90
36374;DHT22;22399;51.346;12.372;2023-03-16T09:03:43;10.60;99.90
36374;DHT22;22399;51.346;12.372;2023-03-16T09:06:15;10.10;98.30
36374;DHT22;22399;51.346;12.372;2023-03-16T09:08:44;9.90;98.10
36374;DHT22;22399;51.346;12.372;2023-03-16T09:11:15;9.90;99.10
36374;DHT22;22399;51.346;12.372;2023-03-16T09:13:46;10.20;99.10
36374;DHT22;22399;51.346;12.372;2023-03-16T09:16:14;10.00;98.00
36374;DHT22;22399;51.346;12.372;2023-03-16T09:18:43;10.10;98.30
36374;DHT22;22399;51.346;12.372;2023-03-16T09:21:11;10.00;97.60
36374;DHT22;22399;51.346;12.372;2023-03-16T09:23:40;9.70;98.00
36374;DHT22;22399;51.346;12.372;2023-03-16T09:26:09;9.70;97.20
36374;DHT22;22399;51.346;12.372;2023-03-16T09:28:39;9.80;96.70
36374;DHT22;22399;51.346;12.372;2023-03-16T09:31:15;9.60;96.20
36374;DHT22;22399;51.346;12.372;2023-03-16T09:33:43;9.50;95.90
36374;DHT22;22399;51.346;12.372;2023-03-16T09:36:13;9.50;95.60
36374;DHT22;22399;51.346;12.372;2023-03-16T09:38:43;9.40;95.40
36374;DHT22;22399;51.346;12.372;2023-03-16T09:41:24;9.90;96.20
36374;DHT22;22399;51.346;12.372;2023-03-16T09:44:02;10.10;95.80
36374;DHT22;22399;51.346;12.372;2023-03-16T09:46:36;9.90;95.10
36374;DHT22;22399;51.346;12.372;2023-03-16T09:49:09;10.10;96.10
36374;DHT22;22399;51.346;12.372;2023-03-16T09:51:41;10.40;96.00
36374;DHT22;22399;51.346;12.372;2023-03-16T09:54:21;10.50;95.40
36374;DHT22;22399;51.346;12.372;2023-03-16T09:56:53;10.10;94.00
36374;DHT22;22399;51.346;12.372;2023-03-16T09:59:23;10.00;94.00
36374;DHT22;22399;51.346;12.372;2023-03-16T10:02:03;10.00;93.20
36374;DHT22;22399;51.346;12.372;2023-03-16T10:04:39;9.80;93.10
36374;DHT22;22399;51.346;12.372;2023-03-16T10:07:19;9.90;93.10
36374;DHT22;22399;51.346;12.372;2023-03-16T10:09:55;10.00;93.90
36374;DHT22;22399;51.346;12.372;2023-03-16T10:12:28;10.10;93.40
36374;DHT22;22399;51.346;12.372;2023-03-16T10:15:02;9.90;92.50
36374;DHT22;22399;51.346;12.372;2023-03-16T10:17:37;9.70;91.50
36374;DHT22;22399;51.346;12.372;2023-03-16T10:20:14;9.70;91.60
36374;DHT22;22399;51.346;12.372;2023-03-16T10:22:45;9.60;92.10
36374;DHT22;22399;51.346;12.372;2023-03-16T10:25:18;9.60;91.20
36374;DHT22;22399;51.346;12.372;2023-03-16T10:27:47;9.50;90.70
36374;DHT22;22399;51.346;12.372;2023-03-16T10:30:21;9.60;91.50
36374;DHT22;22399;51.346;12.372;2023-03-16T10:32:52;9.60;90.40
36374;DHT22;22399;51.346;12.372;2023-03-16T10:35:32;9.60;90.50
36374;DHT22;22399;51.346;12.372;2023-03-16T10:38:06;9.70;90.60
36374;DHT22;22399;51.346;12.372;2023-03-16T10:40:37;9.60;90.70
36374;DHT22;22399;51.346;12.372;2023-03-16T10:43:06;9.70;90.50
36374;DHT22;22399;51.346;12.372;2023-03-16T10:45:36;9.90;90.70
36374;DHT22;22399;51.346;12.372;2023-03-16T10:48:07;9.90;90.60
36374;DHT22;22399;51.346;12.372;2023-03-16T10:50:36;9.90;90.80
36374;DHT22;22399;51.346;12.372;2023-03-16T10:53:15;9.90;90.60
36374;DHT22;22399;51.346;12.372;2023-03-16T10:55:44;9.90;90.90
36374;DHT22;22399;51.346;12.372;2023-03-16T10:58:22;9.80;89.80
36374;DHT22;22399;51.346;12.372;2023-03-16T11:00:52;9.70;89.40
36374;DHT22;22399;51.346;12.372;2023-03-16T11:03:25;9.60;88.40
36374;DHT22;22399;51.346;12.372;2023-03-16T11:05:59;9.70;90.00
36374;DHT22;22399;51.346;12.372;2023-03-16T11:08:32;10.10;90.70
36374;DHT22;22399;51.346;12.372;2023-03-16T11:11:09;10.40;90.60
36374;DHT22;22399;51.346;12.372;2023-03-16T11:13:43;10.40;89.90
36374;DHT22;22399;51.346;12.372;2023-03-16T11:16:22;10.50;90.10
36374;DHT22;22399;51.346;12.372;2023-03-16T11:18:55;10.50;90.30
36374;DHT22;22399;51.346;12.372;2023-03-16T11:21:36;10.80;90.40
36374;DHT22;22399;51.346;12.372;2023-03-16T11:24:12;11.10;90.70
36374;DHT22;22399;51.346;12.372;2023-03-16T11:26:44;11.10;90.50
36374;DHT22;22399;51.346;12.372;2023-03-16T11:29:18;11.20;90.40
36374;DHT22;22399;51.346;12.372;2023-03-16T11:31:52;11.30;90.00
36374;DHT22;22399;51.346;12.372;2023-03-16T11:34:26;11.20;89.90
36374;DHT22;22399;51.346;12.372;2023-03-16T11:36:58;11.50;90.10
36374;DHT22;22399;51.346;12.372;2023-03-16T11:39:35;11.40;88.90
36374;DHT22;22399;51.346;12.372;2023-03-16T11:42:21;11.30;89.50
36374;DHT22;22399;51.346;12.372;2023-03-16T11:44:54;11.00;88.90
36374;DHT22;22399;51.346;12.372;2023-03-16T11:47:59;10.90;88.50
36374;DHT22;22399;51.346;12.372;2023-03-16T11:50:38;11.10;89.20
36374;DHT22;22399;51.346;12.372;2023-03-16T11:53:18;11.30;87.80
36374;DHT22;22399;51.346;12.372;2023-03-16T11:55:56;11.20;86.00
36374;DHT22;22399;51.346;12.372;2023-03-16T11:58:34;11.00;85.80
36374;DHT22;22399;51.346;12.372;2023-03-16T12:01:11;11.20;85.70
36374;DHT22;22399;51.346;12.372;2023-03-16T12:04:07;11.50;86.10
36374;DHT22;22399;51.346;12.372;2023-03-16T12:07:03;11.60;85.40
36374;DHT22;22399;51.346;12.372;2023-03-16T12:09:58;11.40;83.10
36374;DHT22;22399;51.346;12.372;2023-03-16T12:12:39;11.30;82.70
36374;DHT22;22399;51.346;12.372;2023-03-16T12:15:24;11.20;81.70
36374;DHT22;22399;51.346;12.372;2023-03-16T12:17:59;11.00;81.80
36374;DHT22;22399;51.346;12.372;2023-03-16T12:20:33;11.30;82.00
36374;DHT22;22399;51.346;12.372;2023-03-16T12:23:10;11.40;82.00
36374;DHT22;22399;51.346;12.372;2023-03-16T12:25:43;11.50;82.40
36374;DHT22;22399;51.346;12.372;2023-03-16T12:28:20;11.40;81.10
36374;DHT22;22399;51.346;12.372;2023-03-16T12:31:02;11.30;82.10
36374;DHT22;22399;51.346;12.372;2023-03-16T12:33:46;11.50;80.60
36374;DHT22;22399;51.346;12.372;2023-03-16T12:36:45;11.30;80.40
36374;DHT22;22399;51.346;12.372;2023-03-16T12:39:27;11.20;78.90
36374;DHT22;22399;51.346;12.372;2023-03-16T12:42:07;11.10;78.60
36374;DHT22;22399;51.346;12.372;2023-03-16T12:44:45;11.40;77.90
36374;DHT22;22399;51.346;12.372;2023-03-16T12:47:17;11.10;77.70
36374;DHT22;22399;51.346;12.372;2023-03-16T12:49:49;11.20;76.00
36374;DHT22;22399;51.346;12.372;2023-03-16T12:52:18;11.60;77.20
36374;DHT22;22399;51.346;12.372;2023-03-16T12:54:53;11.70;77.20
36374;DHT22;22399;51.346;12.372;2023-03-16T12:57:32;11.60;77.30
36374;DHT22;22399;51.346;12.372;2023-03-16T13:00:04;11.50;76.00
36374;DHT22;22399;51.346;12.372;2023-03-16T13:02:37;11.50;75.70
36374;DHT22;22399;51.346;12.372;2023-03-16T13:05:08;11.70;76.50
36374;DHT22;22399;51.346;12.372;2023-03-16T13:07:45;11.90;76.90
36374;DHT22;22399;51.346;12.372;2023-03-16T13:10:17;11.90;77.10
36374;DHT22;22399;51.346;12.372;2023-03-16T13:12:47;11.70;74.30
36374;DHT22;22399;51.346;12.372;2023-03-16T13:15:28;11.70;74.40
36374;DHT22;22399;51.346;12.372;2023-03-16T13:18:18;11.60;74.60
36374;DHT22;22399;51.346;12.372;2023-03-16T13:20:53;11.90;75.10
36374;DHT22;22399;51.346;12.372;2023-03-16T13:23:25;11.80;72.20
36374;DHT22;22399;51.346;12.372;2023-03-16T13:26:10;11.90;72.50
36374;DHT22;22399;51.346;12.372;2023-03-16T13:28:41;11.90;73.50
36374;DHT22;22399;51.346;12.372;2023-03-16T13:31:21;12.00;73.20
36374;DHT22;22399;51.346;12.372;2023-03-16T13:33:53;12.00;72.00
36374;DHT22;22399;51.346;12.372;2023-03-16T13:36:23;11.90;71.30
36374;DHT22;22399;51.346;12.372;2023-03-16T13:39:01;11.80;70.20
36374;DHT22;22399;51.346;12.372;2023-03-16T13:41:32;11.90;69.20
36374;DHT22;22399;51.346;12.372;2023-03-16T13:44:03;11.90;68.70
36374;DHT22;22399;51.346;12.372;2023-03-16T13:46:31;12.10;68.20
36374;DHT22;22399;51.346;12.372;2023-03-16T13:49:00;12.40;68.40
36374;DHT22;22399;51.346;12.372;2023-03-16T13:51:32;12.40;67.60
36374;DHT22;22399;51.346;12.372;2023-03-16T13:54:04;12.40;68.00
36374;DHT22;22399;51.346;12.372;2023-03-16T13:56:41;12.50;68.30
36374;DHT22;22399;51.346;12.372;2023-03-16T13:59:10;12.50;68.10
36374;DHT22;22399;51.346;12.372;2023-03-16T14:01:43;12.40;66.70
36374;DHT22;22399;51.346;12.372;2023-03-16T14:04:12;12.50;67.40
36374;DHT22;22399;51.346;12.372;2023-03-16T14:06:52;12.60;66.60
36374;DHT22;22399;51.346;12.372;2023-03-16T14:09:24;12.40;67.70
36374;DHT22;22399;51.346;12.372;2023-03-16T14:11:56;12.50;68.00
36374;DHT22;22399;51.346;12.372;2023-03-16T14:14:28;12.50;67.20
36374;DHT22;22399;51.346;12.372;2023-03-16T14:17:01;12.50;66.00
36374;DHT22;22399;51.346;12.372;2023-03-16T14:19:42;12.50;66.40
36374;DHT22;22399;51.346;12.372;2023-03-16T14:22:15;12.70;66.40
36374;DHT22;22399;51.346;12.372;2023-03-16T14:24:45;12.90;66.20
36374;DHT22;22399;51.346;12.372;2023-03-16T14:27:24;12.70;65.70
36374;DHT22;22399;51.346;12.372;2023-03-16T14:29:57;12.70;66.20
36374;DHT22;22399;51.346;12.372;2023-03-16T14:32:28;12.60;66.50
36374;DHT22;22399;51.346;12.372;2023-03-16T14:35:20;12.70;66.70
36374;DHT22;22399;51.346;12.372;2023-03-16T14:37:48;12.90;66.90
36374;DHT22;22399;51.346;12.372;2023-03-16T14:40:21;13.00;65.60
36374;DHT22;22399;51.346;12.372;2023-03-16T14:42:52;13.00;65.10
36374;DHT22;22399;51.346;12.372;2023-03-16T14:45:23;12.90;64.70
36374;DHT22;22399;51.346;12.372;2023-03-16T14:47:53;12.40;64.60
36374;DHT22;22399;51.346;12.372;2023-03-16T14:50:23;11.60;66.20
36374;DHT22;22399;51.346;12.372;2023-03-16T14:52:54;11.20;68.30
36374;DHT22;22399;51.346;12.372;2023-03-16T14:55:23;11.00;69.00
36374;DHT22;22399;51.346;12.372;2023-03-16T14:57:53;10.80;69.20
36374;DHT22;22399;51.346;12.372;2023-03-16T15:00:22;10.80;70.50
36374;DHT22;22399;51.346;12.372;2023-03-16T15:02:57;10.60;70.70
36374;DHT22;22399;51.346;12.372;2023-03-16T15:05:30;10.50;71.40
36374;DHT22;22399;51.346;12.372;2023-03-16T15:08:02;10.40;70.40
36374;DHT22;22399;51.346;12.372;2023-03-16T15:10:32;10.20;68.20
36374;DHT22;22399;51.346;12.372;2023-03-16T15:13:12;10.20;68.80
36374;DHT22;22399;51.346;12.372;2023-03-16T15:15:50;10.00;69.70
36374;DHT22;22399;51.346;12.372;2023-03-16T15:18:19;9.80;67.50
36374;DHT22;22399;51.346;12.372;2023-03-16T15:20:48;9.80;68.30
36374;DHT22;22399;51.346;12.372;2023-03-16T15:23:19;9.80;68.80
36374;DHT22;22399;51.346;12.372;2023-03-16T15:25:49;9.80;69.20
36374;DHT22;22399;51.346;12.372;2023-03-16T15:28:22;9.80;68.30
36374;DHT22;22399;51.346;12.372;2023-03-16T15:30:52;9.80;68.60
36374;DHT22;22399;51.346;12.372;2023-03-16T15:33:22;9.60;67.60
36374;DHT22;22399;51.346;12.372;2023-03-16T15:35:52;9.60;68.20
36374;DHT22;22399;51.346;12.372;2023-03-16T15:38:25;9.40;68.40
36374;DHT22;22399;51.346;12.372;2023-03-16T15:40:54;9.30;68.30
36374;DHT22;22399;51.346;12.372;2023-03-16T15:43:28;9.20;68.30
36374;DHT22;22399;51.346;12.372;2023-03-16T15:45:58;9.20;68.80
36374;DHT22;22399;51.346;12.372;2023-03-16T15:48:27;9.20;68.70
36374;DHT22;22399;51.346;12.372;2023-03-16T15:50:58;9.10;68.80
36374;DHT22;22399;51.346;12.372;2023-03-16T15:53:30;9.10;69.50
36374;DHT22;22399;51.346;12.372;2023-03-16T15:56:03;9.10;69.50
36374;DHT22;22399;51.346;12.372;2023-03-16T15:58:35;9.00;68.90
36374;DHT22;22399;51.346;12.372;2023-03-16T16:01:04;9.00;69.20